sensor_id;sensor_type;location;lat;lon;timestamp;P1;durP1;ratioP1;P2;durP2;ratioP2
31818;SDS011;18384;48.860;9.188;2023-12-28T00:01:40;5.70;;;2.87;;
31818;SDS011;18384;48.860;9.188;2023-12-28T00:04:06;4.35;;;2.33;;
31818;SDS011;18384;48.860;9.188;2023-12-28T00:06:32;4.87;;;2.83;;
31818;SDS011;18384;48.860;9.188;2023-12-28T00:08:58;4.40;;;2.42;;
31818;SDS011;18384;48.860;9.188;2023-12-28T00:11:25;3.70;;;1.98;;
31818;SDS011;18384;48.860;9.188;2023-12-28T00:13:51;3.37;;;2.00;;
31818;SDS011;18384;48.860;9.188;2023-12-28T00:16:17;5.75;;;1.90;;
31818;SDS011;18384;48.860;9.188;2023-12-28T00:18:44;3.58;;;1.90;;
31818;SDS011;18384;48.860;9.188;2023-12-28T00:21:10;4.80;;;2.12;;
31818;SDS011;18384;48.860;9.188;2023-12-28T00:23:36;2.90;;;1.73;;
31818;SDS011;18384;48.860;9.188;2023-12-28T00:26:02;5.12;;;1.90;;
31818;SDS011;18384;48.860;9.188;2023-12-28T00:28:28;3.65;;;2.05;;
31818;SDS011;18384;48.860;9.188;2023-12-28T00:30:54;2.87;;;1.62;;
31818;SDS011;18384;48.860;9.188;2023-12-28T00:33:20;3.10;;;1.73;;
31818;SDS011;18384;48.860;9.188;2023-12-28T00:35:46;4.07;;;2.20;;
31818;SDS011;18384;48.860;9.188;2023-12-28T00:38:12;3.80;;;1.87;;
31818;SDS011;18384;48.860;9.188;2023-12-28T00:40:38;3.75;;;1.90;;
31818;SDS011;18384;48.860;9.188;2023-12-28T00:43:05;3.35;;;2.00;;
31818;SDS011;18384;48.860;9.188;2023-12-28T00:45:31;5.30;;;2.00;;
31818;SDS011;18384;48.860;9.188;2023-12-28T00:47:57;4.05;;;2.05;;
31818;SDS011;18384;48.860;9.188;2023-12-28T00:50:23;3.30;;;2.00;;
31818;SDS011;18384;48.860;9.188;2023-12-28T00:52:50;3.05;;;1.75;;
31818;SDS011;18384;48.860;9.188;2023-12-28T00:55:16;3.50;;;1.95;;
31818;SDS011;18384;48.860;9.188;2023-12-28T00:57:42;4.35;;;2.25;;
31818;SDS011;18384;48.860;9.188;2023-12-28T01:00:09;4.03;;;2.08;;
31818;SDS011;18384;48.860;9.188;2023-12-28T01:02:35;4.60;;;2.12;;
31818;SDS011;18384;48.860;9.188;2023-12-28T01:05:02;3.90;;;2.10;;
31818;SDS011;18384;48.860;9.188;2023-12-28T01:07:29;2.72;;;1.62;;
31818;SDS011;18384;48.860;9.188;2023-12-28T01:09:55;6.25;;;2.00;;
31818;SDS011;18384;48.860;9.188;2023-12-28T01:12:21;3.15;;;1.60;;
31818;SDS011;18384;48.860;9.188;2023-12-28T01:14:47;4.57;;;2.22;;
31818;SDS011;18384;48.860;9.188;2023-12-28T01:17:13;3.08;;;1.80;;
31818;SDS011;18384;48.860;9.188;2023-12-28T01:19:39;3.92;;;1.90;;
31818;SDS011;18384;48.860;9.188;2023-12-28T01:22:05;4.97;;;2.17;;
31818;SDS011;18384;48.860;9.188;2023-12-28T01:24:32;3.25;;;1.80;;
31818;SDS011;18384;48.860;9.188;2023-12-28T01:26:58;4.25;;;1.85;;
31818;SDS011;18384;48.860;9.188;2023-12-28T01:29:24;3.53;;;1.77;;
31818;SDS011;18384;48.860;9.188;2023-12-28T01:31:50;3.72;;;2.17;;
31818;SDS011;18384;48.860;9.188;2023-12-28T01:34:16;2.60;;;1.70;;
31818;SDS011;18384;48.860;9.188;2023-12-28T01:36:42;4.90;;;2.30;;
31818;SDS011;18384;48.860;9.188;2023-12-28T01:39:09;5.87;;;2.60;;
31818;SDS011;18384;48.860;9.188;2023-12-28T01:41:38;4.70;;;2.50;;
31818;SDS011;18384;48.860;9.188;2023-12-28T01:44:04;3.97;;;2.03;;
31818;SDS011;18384;48.860;9.188;2023-12-28T01:46:30;2.83;;;1.77;;
31818;SDS011;18384;48.860;9.188;2023-12-28T01:48:57;4.15;;;2.03;;
31818;SDS011;18384;48.860;9.188;2023-12-28T01:51:24;4.53;;;2.17;;
31818;SDS011;18384;48.860;9.188;2023-12-28T01:53:51;6.15;;;2.17;;
31818;SDS011;18384;48.860;9.188;2023-12-28T01:56:18;2.83;;;1.62;;
31818;SDS011;18384;48.860;9.188;2023-12-28T01:58:45;3.15;;;1.80;;
31818;SDS011;18384;48.860;9.188;2023-12-28T02:01:13;7.22;;;1.92;;
31818;SDS011;18384;48.860;9.188;2023-12-28T02:03:39;5.20;;;2.20;;
31818;SDS011;18384;48.860;9.188;2023-12-28T02:06:06;5.00;;;2.03;;
31818;SDS011;18384;48.860;9.188;2023-12-28T02:08:33;3.30;;;1.92;;
31818;SDS011;18384;48.860;9.188;2023-12-28T02:10:59;3.78;;;1.67;;
31818;SDS011;18384;48.860;9.188;2023-12-28T02:13:25;5.55;;;2.08;;
31818;SDS011;18384;48.860;9.188;2023-12-28T02:15:54;4.65;;;1.80;;
31818;SDS011;18384;48.860;9.188;2023-12-28T02:18:30;5.87;;;1.77;;
31818;SDS011;18384;48.860;9.188;2023-12-28T02:21:04;2.75;;;1.67;;
31818;SDS011;18384;48.860;9.188;2023-12-28T02:23:32;3.35;;;1.80;;
31818;SDS011;18384;48.860;9.188;2023-12-28T02:25:58;3.95;;;2.20;;
31818;SDS011;18384;48.860;9.188;2023-12-28T02:28:24;4.37;;;2.12;;
31818;SDS011;18384;48.860;9.188;2023-12-28T02:30:50;4.47;;;1.60;;
31818;SDS011;18384;48.860;9.188;2023-12-28T02:33:24;6.95;;;1.70;;
31818;SDS011;18384;48.860;9.188;2023-12-28T02:36:01;3.35;;;1.65;;
31818;SDS011;18384;48.860;9.188;2023-12-28T02:38:35;4.18;;;1.83;;
31818;SDS011;18384;48.860;9.188;2023-12-28T02:41:04;5.57;;;2.25;;
31818;SDS011;18384;48.860;9.188;2023-12-28T02:43:31;2.92;;;1.50;;
31818;SDS011;18384;48.860;9.188;2023-12-28T02:45:58;3.60;;;1.90;;
31818;SDS011;18384;48.860;9.188;2023-12-28T02:48:24;3.75;;;1.85;;
31818;SDS011;18384;48.860;9.188;2023-12-28T02:50:51;3.12;;;1.50;;
31818;SDS011;18384;48.860;9.188;2023-12-28T02:53:17;3.80;;;1.95;;
31818;SDS011;18384;48.860;9.188;2023-12-28T02:55:43;4.00;;;1.92;;
31818;SDS011;18384;48.860;9.188;2023-12-28T02:58:09;3.97;;;1.50;;
31818;SDS011;18384;48.860;9.188;2023-12-28T03:00:35;3.87;;;1.67;;
31818;SDS011;18384;48.860;9.188;2023-12-28T03:03:02;3.17;;;1.50;;
31818;SDS011;18384;48.860;9.188;2023-12-28T03:07:54;2.97;;;1.50;;
31818;SDS011;18384;48.860;9.188;2023-12-28T03:10:20;3.97;;;1.77;;
31818;SDS011;18384;48.860;9.188;2023-12-28T03:12:47;4.05;;;1.95;;
31818;SDS011;18384;48.860;9.188;2023-12-28T03:15:13;3.47;;;1.85;;
31818;SDS011;18384;48.860;9.188;2023-12-28T03:17:39;3.33;;;1.70;;
31818;SDS011;18384;48.860;9.188;2023-12-28T03:20:05;3.03;;;1.52;;
31818;SDS011;18384;48.860;9.188;2023-12-28T03:22:32;3.62;;;1.50;;
31818;SDS011;18384;48.860;9.188;2023-12-28T03:24:58;2.15;;;1.33;;
31818;SDS011;18384;48.860;9.188;2023-12-28T03:27:24;4.00;;;1.80;;
31818;SDS011;18384;48.860;9.188;2023-12-28T03:29:50;3.35;;;1.77;;
31818;SDS011;18384;48.860;9.188;2023-12-28T03:32:16;2.55;;;1.52;;
31818;SDS011;18384;48.860;9.188;2023-12-28T03:34:42;3.37;;;2.03;;
31818;SDS011;18384;48.860;9.188;2023-12-28T03:37:09;3.67;;;1.90;;
31818;SDS011;18384;48.860;9.188;2023-12-28T03:39:36;4.12;;;1.40;;
31818;SDS011;18384;48.860;9.188;2023-12-28T03:44:29;3.40;;;1.70;;
31818;SDS011;18384;48.860;9.188;2023-12-28T03:46:55;4.28;;;1.70;;
31818;SDS011;18384;48.860;9.188;2023-12-28T03:51:48;6.78;;;1.92;;
31818;SDS011;18384;48.860;9.188;2023-12-28T03:54:16;2.53;;;1.50;;
31818;SDS011;18384;48.860;9.188;2023-12-28T03:56:42;2.35;;;1.40;;
31818;SDS011;18384;48.860;9.188;2023-12-28T03:59:12;3.72;;;1.73;;
31818;SDS011;18384;48.860;9.188;2023-12-28T04:01:38;3.85;;;1.50;;
31818;SDS011;18384;48.860;9.188;2023-12-28T04:06:30;2.83;;;1.62;;
31818;SDS011;18384;48.860;9.188;2023-12-28T04:11:23;3.42;;;1.60;;
31818;SDS011;18384;48.860;9.188;2023-12-28T04:13:49;4.05;;;1.75;;
31818;SDS011;18384;48.860;9.188;2023-12-28T04:16:15;2.87;;;1.40;;
31818;SDS011;18384;48.860;9.188;2023-12-28T04:18:42;4.78;;;1.73;;
31818;SDS011;18384;48.860;9.188;2023-12-28T04:21:09;4.22;;;1.73;;
31818;SDS011;18384;48.860;9.188;2023-12-28T04:23:37;2.85;;;1.52;;
31818;SDS011;18384;48.860;9.188;2023-12-28T04:26:04;2.70;;;1.83;;
31818;SDS011;18384;48.860;9.188;2023-12-28T04:28:30;3.30;;;1.73;;
31818;SDS011;18384;48.860;9.188;2023-12-28T04:30:56;3.58;;;1.77;;
31818;SDS011;18384;48.860;9.188;2023-12-28T04:33:22;4.03;;;1.37;;
31818;SDS011;18384;48.860;9.188;2023-12-28T04:35:48;3.20;;;1.60;;
31818;SDS011;18384;48.860;9.188;2023-12-28T04:38:15;2.72;;;1.60;;
31818;SDS011;18384;48.860;9.188;2023-12-28T04:40:41;3.70;;;1.60;;
31818;SDS011;18384;48.860;9.188;2023-12-28T04:45:33;4.45;;;1.70;;
31818;SDS011;18384;48.860;9.188;2023-12-28T04:47:59;3.12;;;1.40;;
31818;SDS011;18384;48.860;9.188;2023-12-28T04:50:25;4.05;;;1.65;;
31818;SDS011;18384;48.860;9.188;2023-12-28T04:52:51;3.55;;;2.00;;
31818;SDS011;18384;48.860;9.188;2023-12-28T04:55:17;3.85;;;1.70;;
31818;SDS011;18384;48.860;9.188;2023-12-28T04:57:43;3.97;;;2.03;;
31818;SDS011;18384;48.860;9.188;2023-12-28T05:00:10;7.18;;;2.10;;
31818;SDS011;18384;48.860;9.188;2023-12-28T05:02:36;3.53;;;1.27;;
31818;SDS011;18384;48.860;9.188;2023-12-28T05:05:02;3.30;;;1.67;;
31818;SDS011;18384;48.860;9.188;2023-12-28T05:07:29;3.53;;;1.60;;
31818;SDS011;18384;48.860;9.188;2023-12-28T05:09:55;3.72;;;1.85;;
31818;SDS011;18384;48.860;9.188;2023-12-28T05:12:21;2.28;;;1.30;;
31818;SDS011;18384;48.860;9.188;2023-12-28T05:14:47;3.65;;;1.40;;
31818;SDS011;18384;48.860;9.188;2023-12-28T05:17:13;3.67;;;1.70;;
31818;SDS011;18384;48.860;9.188;2023-12-28T05:19:39;4.32;;;1.73;;
31818;SDS011;18384;48.860;9.188;2023-12-28T05:22:05;2.35;;;1.27;;
31818;SDS011;18384;48.860;9.188;2023-12-28T05:24:33;2.60;;;1.37;;
31818;SDS011;18384;48.860;9.188;2023-12-28T05:26:59;5.62;;;1.67;;
31818;SDS011;18384;48.860;9.188;2023-12-28T05:29:25;4.55;;;1.70;;
31818;SDS011;18384;48.860;9.188;2023-12-28T05:31:51;3.25;;;1.60;;
31818;SDS011;18384;48.860;9.188;2023-12-28T05:34:18;2.92;;;1.37;;
31818;SDS011;18384;48.860;9.188;2023-12-28T05:36:44;3.53;;;1.45;;
31818;SDS011;18384;48.860;9.188;2023-12-28T05:39:11;4.15;;;1.58;;
31818;SDS011;18384;48.860;9.188;2023-12-28T05:41:39;3.72;;;1.65;;
31818;SDS011;18384;48.860;9.188;2023-12-28T05:44:05;3.60;;;1.60;;
31818;SDS011;18384;48.860;9.188;2023-12-28T05:46:31;2.42;;;1.48;;
31818;SDS011;18384;48.860;9.188;2023-12-28T05:51:24;4.07;;;1.50;;
31818;SDS011;18384;48.860;9.188;2023-12-28T05:53:50;3.67;;;1.58;;
31818;SDS011;18384;48.860;9.188;2023-12-28T05:56:16;4.57;;;1.58;;
31818;SDS011;18384;48.860;9.188;2023-12-28T05:58:42;3.97;;;1.58;;
31818;SDS011;18384;48.860;9.188;2023-12-28T06:01:08;3.70;;;1.48;;
31818;SDS011;18384;48.860;9.188;2023-12-28T06:03:34;3.15;;;1.77;;
31818;SDS011;18384;48.860;9.188;2023-12-28T06:06:00;3.83;;;1.48;;
31818;SDS011;18384;48.860;9.188;2023-12-28T06:08:27;3.35;;;1.73;;
31818;SDS011;18384;48.860;9.188;2023-12-28T06:10:53;3.25;;;1.85;;
31818;SDS011;18384;48.860;9.188;2023-12-28T06:13:19;3.58;;;1.52;;
31818;SDS011;18384;48.860;9.188;2023-12-28T06:15:45;2.47;;;1.30;;
31818;SDS011;18384;48.860;9.188;2023-12-28T06:18:11;3.10;;;1.30;;
31818;SDS011;18384;48.860;9.188;2023-12-28T06:20:37;4.28;;;1.77;;
31818;SDS011;18384;48.860;9.188;2023-12-28T06:23:03;3.70;;;1.62;;
31818;SDS011;18384;48.860;9.188;2023-12-28T06:25:31;2.58;;;1.27;;
31818;SDS011;18384;48.860;9.188;2023-12-28T06:27:57;3.08;;;1.30;;
31818;SDS011;18384;48.860;9.188;2023-12-28T06:30:23;4.90;;;1.40;;
31818;SDS011;18384;48.860;9.188;2023-12-28T06:32:49;3.20;;;1.60;;
31818;SDS011;18384;48.860;9.188;2023-12-28T06:35:16;4.60;;;1.75;;
31818;SDS011;18384;48.860;9.188;2023-12-28T06:37:42;4.75;;;1.67;;
31818;SDS011;18384;48.860;9.188;2023-12-28T06:42:35;2.53;;;1.30;;
31818;SDS011;18384;48.860;9.188;2023-12-28T06:45:01;3.90;;;1.73;;
31818;SDS011;18384;48.860;9.188;2023-12-28T06:47:27;4.05;;;1.33;;
31818;SDS011;18384;48.860;9.188;2023-12-28T06:49:53;2.95;;;1.10;;
31818;SDS011;18384;48.860;9.188;2023-12-28T06:52:19;4.60;;;1.50;;
31818;SDS011;18384;48.860;9.188;2023-12-28T06:54:45;3.53;;;1.27;;
31818;SDS011;18384;48.860;9.188;2023-12-28T06:57:11;3.55;;;1.25;;
31818;SDS011;18384;48.860;9.188;2023-12-28T06:59:37;2.50;;;1.30;;
31818;SDS011;18384;48.860;9.188;2023-12-28T07:02:03;8.88;;;2.12;;
31818;SDS011;18384;48.860;9.188;2023-12-28T07:04:30;3.72;;;1.60;;
31818;SDS011;18384;48.860;9.188;2023-12-28T07:06:58;5.47;;;1.50;;
31818;SDS011;18384;48.860;9.188;2023-12-28T07:09:24;5.68;;;1.67;;
31818;SDS011;18384;48.860;9.188;2023-12-28T07:11:50;4.28;;;1.27;;
31818;SDS011;18384;48.860;9.188;2023-12-28T07:14:16;3.58;;;1.30;;
31818;SDS011;18384;48.860;9.188;2023-12-28T07:16:42;9.32;;;1.50;;
31818;SDS011;18384;48.860;9.188;2023-12-28T07:19:08;2.72;;;1.40;;
31818;SDS011;18384;48.860;9.188;2023-12-28T07:21:34;2.58;;;1.30;;
31818;SDS011;18384;48.860;9.188;2023-12-28T07:24:00;8.43;;;1.52;;
31818;SDS011;18384;48.860;9.188;2023-12-28T07:26:26;3.60;;;1.10;;
31818;SDS011;18384;48.860;9.188;2023-12-28T07:28:53;2.37;;;1.37;;
31818;SDS011;18384;48.860;9.188;2023-12-28T07:31:23;2.45;;;1.15;;
31818;SDS011;18384;48.860;9.188;2023-12-28T07:33:53;2.37;;;1.10;;
31818;SDS011;18384;48.860;9.188;2023-12-28T07:36:20;2.40;;;1.15;;
31818;SDS011;18384;48.860;9.188;2023-12-28T07:38:46;3.30;;;1.25;;
31818;SDS011;18384;48.860;9.188;2023-12-28T07:41:12;3.72;;;1.20;;
31818;SDS011;18384;48.860;9.188;2023-12-28T07:43:38;3.80;;;1.62;;
31818;SDS011;18384;48.860;9.188;2023-12-28T07:46:05;6.75;;;1.40;;
31818;SDS011;18384;48.860;9.188;2023-12-28T07:48:31;2.67;;;1.52;;
31818;SDS011;18384;48.860;9.188;2023-12-28T07:50:57;7.20;;;1.33;;
31818;SDS011;18384;48.860;9.188;2023-12-28T07:55:49;7.93;;;3.03;;
31818;SDS011;18384;48.860;9.188;2023-12-28T08:00:41;8.02;;;2.80;;
31818;SDS011;18384;48.860;9.188;2023-12-28T08:03:07;6.75;;;2.50;;
31818;SDS011;18384;48.860;9.188;2023-12-28T08:05:33;5.32;;;2.60;;
31818;SDS011;18384;48.860;9.188;2023-12-28T08:08:00;6.65;;;2.72;;
31818;SDS011;18384;48.860;9.188;2023-12-28T08:10:26;9.90;;;2.40;;
31818;SDS011;18384;48.860;9.188;2023-12-28T08:12:52;5.37;;;2.45;;
31818;SDS011;18384;48.860;9.188;2023-12-28T08:15:18;8.35;;;2.22;;
31818;SDS011;18384;48.860;9.188;2023-12-28T08:17:44;5.15;;;2.67;;
31818;SDS011;18384;48.860;9.188;2023-12-28T08:20:10;7.87;;;2.65;;
31818;SDS011;18384;48.860;9.188;2023-12-28T08:22:36;4.62;;;2.10;;
31818;SDS011;18384;48.860;9.188;2023-12-28T08:25:02;5.45;;;2.28;;
31818;SDS011;18384;48.860;9.188;2023-12-28T08:27:29;5.45;;;2.30;;
31818;SDS011;18384;48.860;9.188;2023-12-28T08:29:55;6.60;;;2.10;;
31818;SDS011;18384;48.860;9.188;2023-12-28T08:32:22;4.00;;;2.05;;
31818;SDS011;18384;48.860;9.188;2023-12-28T08:34:48;7.50;;;2.55;;
31818;SDS011;18384;48.860;9.188;2023-12-28T08:39:40;3.87;;;2.00;;
31818;SDS011;18384;48.860;9.188;2023-12-28T08:42:06;7.20;;;2.20;;
31818;SDS011;18384;48.860;9.188;2023-12-28T08:44:32;7.60;;;2.53;;
31818;SDS011;18384;48.860;9.188;2023-12-28T08:49:25;4.05;;;2.25;;
31818;SDS011;18384;48.860;9.188;2023-12-28T08:51:51;9.60;;;2.35;;
31818;SDS011;18384;48.860;9.188;2023-12-28T08:54:17;5.97;;;2.42;;
31818;SDS011;18384;48.860;9.188;2023-12-28T08:56:43;3.60;;;2.12;;
31818;SDS011;18384;48.860;9.188;2023-12-28T08:59:09;6.45;;;2.67;;
31818;SDS011;18384;48.860;9.188;2023-12-28T09:01:35;7.62;;;2.90;;
31818;SDS011;18384;48.860;9.188;2023-12-28T09:04:02;5.80;;;2.80;;
31818;SDS011;18384;48.860;9.188;2023-12-28T09:06:28;5.87;;;2.12;;
31818;SDS011;18384;48.860;9.188;2023-12-28T09:08:54;9.38;;;2.62;;
31818;SDS011;18384;48.860;9.188;2023-12-28T09:11:21;10.50;;;2.35;;
31818;SDS011;18384;48.860;9.188;2023-12-28T09:13:47;4.57;;;2.17;;
31818;SDS011;18384;48.860;9.188;2023-12-28T09:16:14;4.22;;;2.40;;
31818;SDS011;18384;48.860;9.188;2023-12-28T09:18:40;5.12;;;2.20;;
31818;SDS011;18384;48.860;9.188;2023-12-28T09:21:07;5.57;;;2.92;;
31818;SDS011;18384;48.860;9.188;2023-12-28T09:23:35;6.07;;;2.60;;
31818;SDS011;18384;48.860;9.188;2023-12-28T09:26:03;4.07;;;2.20;;
31818;SDS011;18384;48.860;9.188;2023-12-28T09:28:30;9.30;;;3.37;;
31818;SDS011;18384;48.860;9.188;2023-12-28T09:30:57;10.13;;;3.60;;
31818;SDS011;18384;48.860;9.188;2023-12-28T09:33:25;6.97;;;3.22;;
31818;SDS011;18384;48.860;9.188;2023-12-28T09:35:51;11.75;;;4.07;;
31818;SDS011;18384;48.860;9.188;2023-12-28T09:38:18;13.93;;;5.00;;
31818;SDS011;18384;48.860;9.188;2023-12-28T09:40:44;8.75;;;4.40;;
31818;SDS011;18384;48.860;9.188;2023-12-28T09:43:23;9.88;;;3.97;;
31818;SDS011;18384;48.860;9.188;2023-12-28T09:45:54;7.43;;;3.50;;
31818;SDS011;18384;48.860;9.188;2023-12-28T09:48:20;5.50;;;2.80;;
31818;SDS011;18384;48.860;9.188;2023-12-28T09:50:53;4.45;;;2.37;;
31818;SDS011;18384;48.860;9.188;2023-12-28T09:53:23;5.57;;;2.15;;
31818;SDS011;18384;48.860;9.188;2023-12-28T09:55:51;8.75;;;2.85;;
31818;SDS011;18384;48.860;9.188;2023-12-28T09:58:18;10.73;;;3.62;;
31818;SDS011;18384;48.860;9.188;2023-12-28T10:00:46;7.60;;;2.92;;
31818;SDS011;18384;48.860;9.188;2023-12-28T10:03:15;8.32;;;3.00;;
31818;SDS011;18384;48.860;9.188;2023-12-28T10:05:42;11.43;;;5.10;;
31818;SDS011;18384;48.860;9.188;2023-12-28T10:08:11;9.23;;;2.20;;
31818;SDS011;18384;48.860;9.188;2023-12-28T10:10:38;6.32;;;2.97;;
31818;SDS011;18384;48.860;9.188;2023-12-28T10:13:06;6.43;;;2.60;;
31818;SDS011;18384;48.860;9.188;2023-12-28T10:15:33;4.40;;;2.35;;
31818;SDS011;18384;48.860;9.188;2023-12-28T10:18:00;4.57;;;2.30;;
31818;SDS011;18384;48.860;9.188;2023-12-28T10:20:28;6.07;;;1.80;;
31818;SDS011;18384;48.860;9.188;2023-12-28T10:22:54;5.40;;;2.03;;
31818;SDS011;18384;48.860;9.188;2023-12-28T10:25:20;4.70;;;1.70;;
31818;SDS011;18384;48.860;9.188;2023-12-28T10:27:49;6.03;;;2.25;;
31818;SDS011;18384;48.860;9.188;2023-12-28T10:30:17;7.03;;;2.58;;
31818;SDS011;18384;48.860;9.188;2023-12-28T10:32:45;6.85;;;2.47;;
31818;SDS011;18384;48.860;9.188;2023-12-28T10:35:11;6.97;;;2.17;;
31818;SDS011;18384;48.860;9.188;2023-12-28T10:37:41;5.35;;;2.33;;
31818;SDS011;18384;48.860;9.188;2023-12-28T10:40:12;6.03;;;2.20;;
31818;SDS011;18384;48.860;9.188;2023-12-28T10:42:55;5.65;;;2.50;;
31818;SDS011;18384;48.860;9.188;2023-12-28T10:45:28;6.87;;;2.80;;
31818;SDS011;18384;48.860;9.188;2023-12-28T10:48:09;5.55;;;2.33;;
31818;SDS011;18384;48.860;9.188;2023-12-28T10:50:44;4.55;;;2.00;;
31818;SDS011;18384;48.860;9.188;2023-12-28T10:53:18;7.18;;;2.35;;
31818;SDS011;18384;48.860;9.188;2023-12-28T10:56:25;6.90;;;2.78;;
31818;SDS011;18384;48.860;9.188;2023-12-28T11:00:38;6.18;;;2.58;;
31818;SDS011;18384;48.860;9.188;2023-12-28T11:03:14;8.50;;;3.90;;
31818;SDS011;18384;48.860;9.188;2023-12-28T11:05:49;7.37;;;3.65;;
31818;SDS011;18384;48.860;9.188;2023-12-28T11:08:16;7.78;;;1.95;;
31818;SDS011;18384;48.860;9.188;2023-12-28T11:10:44;4.03;;;1.92;;
31818;SDS011;18384;48.860;9.188;2023-12-28T11:13:12;4.60;;;2.65;;
31818;SDS011;18384;48.860;9.188;2023-12-28T11:15:40;3.30;;;1.45;;
31818;SDS011;18384;48.860;9.188;2023-12-28T11:18:07;4.47;;;1.30;;
31818;SDS011;18384;48.860;9.188;2023-12-28T11:20:33;2.95;;;1.30;;
31818;SDS011;18384;48.860;9.188;2023-12-28T11:23:00;1.52;;;0.93;;
31818;SDS011;18384;48.860;9.188;2023-12-28T11:25:30;4.72;;;1.00;;
31818;SDS011;18384;48.860;9.188;2023-12-28T11:27:59;2.45;;;1.25;;
31818;SDS011;18384;48.860;9.188;2023-12-28T11:30:34;2.05;;;1.02;;
31818;SDS011;18384;48.860;9.188;2023-12-28T11:33:01;2.50;;;1.30;;
31818;SDS011;18384;48.860;9.188;2023-12-28T11:35:34;2.08;;;1.10;;
31818;SDS011;18384;48.860;9.188;2023-12-28T11:38:04;2.42;;;1.10;;
31818;SDS011;18384;48.860;9.188;2023-12-28T11:40:44;2.78;;;1.30;;
31818;SDS011;18384;48.860;9.188;2023-12-28T11:43:18;5.75;;;1.60;;
31818;SDS011;18384;48.860;9.188;2023-12-28T11:45:47;6.62;;;3.10;;
31818;SDS011;18384;48.860;9.188;2023-12-28T11:48:22;4.10;;;1.90;;
31818;SDS011;18384;48.860;9.188;2023-12-28T11:50:56;6.82;;;2.15;;
31818;SDS011;18384;48.860;9.188;2023-12-28T11:53:24;2.90;;;1.50;;
31818;SDS011;18384;48.860;9.188;2023-12-28T11:55:51;2.50;;;1.25;;
31818;SDS011;18384;48.860;9.188;2023-12-28T11:58:24;3.15;;;1.30;;
31818;SDS011;18384;48.860;9.188;2023-12-28T12:00:50;1.75;;;1.20;;
31818;SDS011;18384;48.860;9.188;2023-12-28T12:03:16;1.90;;;1.10;;
31818;SDS011;18384;48.860;9.188;2023-12-28T12:05:42;3.22;;;1.20;;
31818;SDS011;18384;48.860;9.188;2023-12-28T12:08:09;3.87;;;1.33;;
31818;SDS011;18384;48.860;9.188;2023-12-28T12:10:40;3.05;;;1.17;;
31818;SDS011;18384;48.860;9.188;2023-12-28T12:13:07;3.62;;;1.50;;
31818;SDS011;18384;48.860;9.188;2023-12-28T12:15:33;3.33;;;1.12;;
31818;SDS011;18384;48.860;9.188;2023-12-28T12:18:00;3.35;;;1.40;;
31818;SDS011;18384;48.860;9.188;2023-12-28T12:20:27;4.05;;;1.37;;
31818;SDS011;18384;48.860;9.188;2023-12-28T12:22:58;3.58;;;1.20;;
31818;SDS011;18384;48.860;9.188;2023-12-28T12:25:25;4.20;;;1.00;;
31818;SDS011;18384;48.860;9.188;2023-12-28T12:32:46;2.95;;;1.60;;
31818;SDS011;18384;48.860;9.188;2023-12-28T12:35:14;2.92;;;1.20;;
31818;SDS011;18384;48.860;9.188;2023-12-28T12:37:40;2.53;;;1.37;;
31818;SDS011;18384;48.860;9.188;2023-12-28T12:44:59;3.37;;;1.73;;
31818;SDS011;18384;48.860;9.188;2023-12-28T12:47:31;3.72;;;1.50;;
31818;SDS011;18384;48.860;9.188;2023-12-28T12:49:59;6.60;;;1.37;;
31818;SDS011;18384;48.860;9.188;2023-12-28T12:54:56;4.85;;;1.73;;
31818;SDS011;18384;48.860;9.188;2023-12-28T12:57:24;4.25;;;1.17;;
31818;SDS011;18384;48.860;9.188;2023-12-28T12:59:53;4.68;;;1.45;;
31818;SDS011;18384;48.860;9.188;2023-12-28T13:02:22;3.92;;;1.37;;
31818;SDS011;18384;48.860;9.188;2023-12-28T13:04:52;3.25;;;1.77;;
31818;SDS011;18384;48.860;9.188;2023-12-28T13:07:20;4.12;;;1.60;;
31818;SDS011;18384;48.860;9.188;2023-12-28T13:09:46;4.82;;;1.70;;
31818;SDS011;18384;48.860;9.188;2023-12-28T13:12:12;6.80;;;1.37;;
31818;SDS011;18384;48.860;9.188;2023-12-28T13:14:38;5.22;;;1.80;;
31818;SDS011;18384;48.860;9.188;2023-12-28T13:17:04;6.35;;;1.60;;
31818;SDS011;18384;48.860;9.188;2023-12-28T13:21:56;6.15;;;1.67;;
31818;SDS011;18384;48.860;9.188;2023-12-28T13:24:22;3.40;;;1.42;;
31818;SDS011;18384;48.860;9.188;2023-12-28T13:26:49;4.12;;;1.62;;
31818;SDS011;18384;48.860;9.188;2023-12-28T13:29:15;2.65;;;1.52;;
31818;SDS011;18384;48.860;9.188;2023-12-28T13:31:41;2.35;;;1.17;;
31818;SDS011;18384;48.860;9.188;2023-12-28T13:34:09;3.92;;;1.40;;
31818;SDS011;18384;48.860;9.188;2023-12-28T13:36:35;4.35;;;1.50;;
31818;SDS011;18384;48.860;9.188;2023-12-28T13:39:02;2.95;;;1.20;;
31818;SDS011;18384;48.860;9.188;2023-12-28T13:41:28;4.03;;;1.23;;
31818;SDS011;18384;48.860;9.188;2023-12-28T13:43:54;2.10;;;1.20;;
31818;SDS011;18384;48.860;9.188;2023-12-28T13:46:27;2.20;;;1.23;;
31818;SDS011;18384;48.860;9.188;2023-12-28T13:48:53;3.67;;;1.23;;
31818;SDS011;18384;48.860;9.188;2023-12-28T13:51:19;2.12;;;1.00;;
31818;SDS011;18384;48.860;9.188;2023-12-28T13:53:45;4.30;;;1.20;;
31818;SDS011;18384;48.860;9.188;2023-12-28T13:56:12;2.83;;;1.40;;
31818;SDS011;18384;48.860;9.188;2023-12-28T13:58:38;5.12;;;2.33;;
31818;SDS011;18384;48.860;9.188;2023-12-28T14:01:04;5.62;;;2.53;;
31818;SDS011;18384;48.860;9.188;2023-12-28T14:03:30;4.20;;;2.75;;
31818;SDS011;18384;48.860;9.188;2023-12-28T14:05:56;8.50;;;3.55;;
31818;SDS011;18384;48.860;9.188;2023-12-28T14:11:07;6.62;;;2.80;;
31818;SDS011;18384;48.860;9.188;2023-12-28T14:13:34;6.05;;;2.70;;
31818;SDS011;18384;48.860;9.188;2023-12-28T14:16:02;6.37;;;2.92;;
31818;SDS011;18384;48.860;9.188;2023-12-28T14:18:29;7.85;;;3.00;;
31818;SDS011;18384;48.860;9.188;2023-12-28T14:20:55;7.40;;;2.85;;
31818;SDS011;18384;48.860;9.188;2023-12-28T14:23:21;4.93;;;2.50;;
31818;SDS011;18384;48.860;9.188;2023-12-28T14:25:49;6.12;;;2.75;;
31818;SDS011;18384;48.860;9.188;2023-12-28T14:28:16;4.37;;;2.37;;
31818;SDS011;18384;48.860;9.188;2023-12-28T14:30:43;6.32;;;2.70;;
31818;SDS011;18384;48.860;9.188;2023-12-28T14:33:10;5.62;;;2.40;;
31818;SDS011;18384;48.860;9.188;2023-12-28T14:35:36;4.15;;;2.35;;
31818;SDS011;18384;48.860;9.188;2023-12-28T14:38:04;4.82;;;2.55;;
31818;SDS011;18384;48.860;9.188;2023-12-28T14:40:33;5.00;;;2.30;;
31818;SDS011;18384;48.860;9.188;2023-12-28T14:42:59;5.05;;;2.50;;
31818;SDS011;18384;48.860;9.188;2023-12-28T14:45:25;4.65;;;2.65;;
31818;SDS011;18384;48.860;9.188;2023-12-28T14:47:52;3.85;;;1.98;;
31818;SDS011;18384;48.860;9.188;2023-12-28T14:50:18;3.40;;;1.67;;
31818;SDS011;18384;48.860;9.188;2023-12-28T14:52:44;5.60;;;3.30;;
31818;SDS011;18384;48.860;9.188;2023-12-28T14:55:10;6.37;;;2.30;;
31818;SDS011;18384;48.860;9.188;2023-12-28T14:57:36;5.87;;;3.12;;
31818;SDS011;18384;48.860;9.188;2023-12-28T15:00:03;9.07;;;3.87;;
31818;SDS011;18384;48.860;9.188;2023-12-28T15:02:30;8.98;;;4.40;;
31818;SDS011;18384;48.860;9.188;2023-12-28T15:04:57;5.03;;;2.62;;
31818;SDS011;18384;48.860;9.188;2023-12-28T15:07:24;6.55;;;2.60;;
31818;SDS011;18384;48.860;9.188;2023-12-28T15:09:51;5.60;;;2.08;;
31818;SDS011;18384;48.860;9.188;2023-12-28T15:12:21;3.65;;;1.52;;
31818;SDS011;18384;48.860;9.188;2023-12-28T15:14:48;3.25;;;1.80;;
31818;SDS011;18384;48.860;9.188;2023-12-28T15:17:15;7.03;;;2.03;;
31818;SDS011;18384;48.860;9.188;2023-12-28T15:22:08;4.93;;;2.42;;
31818;SDS011;18384;48.860;9.188;2023-12-28T15:24:35;4.28;;;1.50;;
31818;SDS011;18384;48.860;9.188;2023-12-28T15:27:02;3.72;;;1.77;;
31818;SDS011;18384;48.860;9.188;2023-12-28T15:29:31;5.37;;;1.70;;
31818;SDS011;18384;48.860;9.188;2023-12-28T15:31:57;2.58;;;1.52;;
31818;SDS011;18384;48.860;9.188;2023-12-28T15:34:23;4.10;;;1.92;;
31818;SDS011;18384;48.860;9.188;2023-12-28T15:36:49;4.00;;;1.90;;
31818;SDS011;18384;48.860;9.188;2023-12-28T15:41:43;5.93;;;1.87;;